Archival Weather

Chicago O'Hare International

Chicago, Illinois (KORD)

Report from: Monday, December 26, 2022 7:03 AM CST
Current time: Friday, June 21, 2024 2:31 AM CDT

Current weather – Weather history – Daily summaries
Weather forecast

Present weatherLight snow
Temperature-8.9°C (16.0°F)
Wind chill-12.0°C (10.4°F)
Dew point-13.3°C (8.1°F)
Winds 3 kts (1.5 m/s, 3.5 mph) South (190°)
Visibility6 mi. (9.7 km)
Clouds Ceiling: Broken clouds 4,000 ft. (1,219 m)
Overcast 5,500 ft. (1,676 m)
Altimeter30.11 in.Hg (1020 mB)
PrecipitiationTrace
Relative humidity70 %
Density altitude-3,162 ft. (-964 m)
Remarks System requires maintenance
Automated weather observing station with precipitation discriminator
Flight conditions Visual Meteorological Conditions
Raw dataKORD 261303Z 19003KT 6SM -SN BKN040 OVC055 M09/M13 A3011 RMK AO2 P0000 T10891133 $
An error has occurred. This application may no longer respond until reloaded. Reload 🗙